Wheatley, Canada
Current Conditions -  °F | °C
As of 3:00 PM on Monday 24 Nov 2014 (Local Time) from CYCK Reporting Station
Overcast Overcast  
Wind Chill: 33°   Ceiling: 2100
Heat Index: 45°   Visibility: 9mi
Dew Point: 39°   Wind: 45mph
Humidity: 81%   Direction: 230°SW
Pressure: 29.31"   Gusts: 58mph
Location:  42.1°N, 82.45°W
Report Text: CYCK 242000Z AUTO 23039G50KT 9SM OVC021 07/04 A2931 RMK PRESRR SLP928
Loading
Personal Weather Stations






























Interactive Weather Map New forecast layout! Learn more

10-Day Weather Forecast

Advertisements
Track Severe Weather on mobile